Time;durP1;ratioP1;P1;durP2;ratioP2;P2;SDS_P1;SDS_P2;PMS_P1;PMS_P2;Temp;Humidity;BMP_temperature;BMP_pressure;BME280_temperature;BME280_humidity;BME280_pressure;Samples;Min_cycle;Max_cycle;Signal;HPM_P1;HPM_P2
2021/05/09 00:00:43;;;;;;;0.95;0.90;;;22.50;55.60;;;;;;5107762;28;20486;-44
2021/05/09 00:03:08;;;;;;;0.90;0.90;;;22.40;55.60;;;;;;5107923;28;20023;-42
2021/05/09 00:05:34;;;;;;;1.40;0.90;;;22.40;55.60;;;;;;5108159;28;20111;-42
2021/05/09 00:07:59;;;;;;;1.17;1.02;;;22.50;55.40;;;;;;5111158;28;20475;-46
2021/05/09 00:10:25;;;;;;;0.90;0.90;;;22.40;55.50;;;;;;5089310;28;20539;-44
2021/05/09 00:12:51;;;;;;;0.90;0.90;;;22.30;55.90;;;;;;5107740;28;20024;-42
2021/05/09 00:15:19;;;;;;;1.30;1.20;;;22.20;56.00;;;;;;5086041;28;20028;-42
2021/05/09 00:17:45;;;;;;;0.98;0.90;;;22.30;55.80;;;;;;5107804;28;20020;-42
2021/05/09 00:20:11;;;;;;;1.10;1.10;;;22.30;55.90;;;;;;5110057;28;20432;-46
2021/05/09 00:22:36;;;;;;;1.33;1.23;;;22.20;56.00;;;;;;5091026;28;20040;-42
2021/05/09 00:25:03;;;;;;;0.70;0.70;;;22.30;56.40;;;;;;5091809;28;20121;-42
2021/05/09 00:27:28;;;;;;;1.05;0.90;;;22.30;55.70;;;;;;5107277;28;20610;-47
2021/05/09 00:29:54;;;;;;;2.22;1.20;;;22.30;55.70;;;;;;5092809;28;20114;-42
2021/05/09 00:32:20;;;;;;;1.05;1.05;;;22.20;55.80;;;;;;5107809;28;20034;-42
2021/05/09 00:34:45;;;;;;;0.90;0.90;;;22.20;55.80;;;;;;5095907;28;20059;-45
2021/05/09 00:37:11;;;;;;;0.65;0.65;;;22.10;55.90;;;;;;5077500;28;20115;-45
2021/05/09 00:39:37;;;;;;;1.00;0.90;;;22.20;55.80;;;;;;5093420;28;20084;-42
2021/05/09 00:42:06;;;;;;;1.02;1.02;;;22.20;55.80;;;;;;5093842;28;20027;-45
2021/05/09 00:44:32;;;;;;;2.67;0.80;;;22.20;55.90;;;;;;5092785;28;20019;-46
2021/05/09 00:46:58;;;;;;;1.00;0.82;;;22.10;55.80;;;;;;5097406;28;20028;-45
2021/05/09 00:49:24;;;;;;;0.95;0.70;;;22.10;56.00;;;;;;5078719;28;20063;-42
2021/05/09 00:51:50;;;;;;;0.93;0.93;;;22.20;55.80;;;;;;5079807;28;20051;-44
2021/05/09 00:54:16;;;;;;;0.75;0.70;;;22.00;56.10;;;;;;5085895;28;20028;-44
2021/05/09 00:56:42;;;;;;;1.13;1.00;;;22.10;56.10;;;;;;5077427;28;20015;-44
2021/05/09 00:59:08;;;;;;;0.93;0.93;;;22.10;56.00;;;;;;5090006;28;20081;-44
2021/05/09 01:01:36;;;;;;;0.80;0.80;;;22.20;56.00;;;;;;5087026;28;20077;-43
2021/05/09 01:04:01;;;;;;;0.50;0.50;;;22.10;56.00;;;;;;5091884;28;20032;-44
2021/05/09 01:06:27;;;;;;;0.93;0.85;;;22.10;56.10;;;;;;5056512;28;20028;-44
2021/05/09 01:08:53;;;;;;;1.40;0.75;;;22.10;56.00;;;;;;5094269;28;20078;-44
2021/05/09 01:11:18;;;;;;;0.75;0.75;;;22.10;55.90;;;;;;5092443;28;20352;-47
2021/05/09 01:13:45;;;;;;;0.73;0.73;;;22.10;55.70;;;;;;5093616;28;20502;-45
2021/05/09 01:16:10;;;;;;;0.68;0.68;;;22.10;55.90;;;;;;5086052;28;20030;-44
2021/05/09 01:18:36;;;;;;;0.82;0.80;;;22.00;56.60;;;;;;5099965;28;20024;-44
2021/05/09 01:21:01;;;;;;;2.50;0.75;;;22.10;56.10;;;;;;5091083;28;20497;-44
2021/05/09 01:23:27;;;;;;;0.80;0.80;;;22.10;55.70;;;;;;5091471;28;20374;-41
2021/05/09 01:25:52;;;;;;;0.60;0.60;;;22.10;55.70;;;;;;5096523;28;20017;-42
2021/05/09 01:28:18;;;;;;;0.70;0.70;;;22.10;55.70;;;;;;5094592;28;20082;-44
2021/05/09 01:30:43;;;;;;;0.68;0.68;;;22.10;56.40;;;;;;5093050;28;20024;-45
2021/05/09 01:33:09;;;;;;;0.70;0.70;;;22.10;55.80;;;;;;5093576;28;20099;-41
2021/05/09 01:35:35;;;;;;;1.00;0.90;;;22.10;55.70;;;;;;5096236;28;20031;-42
2021/05/09 01:38:01;;;;;;;0.70;0.70;;;22.10;55.80;;;;;;5094223;28;20051;-42
2021/05/09 01:40:26;;;;;;;0.80;0.75;;;22.00;56.00;;;;;;5094411;28;20020;-44
2021/05/09 01:42:52;;;;;;;1.33;0.60;;;21.90;56.10;;;;;;5096465;28;20103;-49
2021/05/09 01:45:18;;;;;;;0.70;0.70;;;21.80;56.10;;;;;;5103935;28;20147;-41
2021/05/09 01:47:43;;;;;;;0.90;0.90;;;21.90;56.20;;;;;;5090724;28;20035;-44
2021/05/09 01:50:11;;;;;;;0.80;0.80;;;22.00;55.90;;;;;;5092227;28;20027;-43
2021/05/09 01:52:36;;;;;;;0.77;0.77;;;22.00;55.90;;;;;;5095461;28;20024;-43
2021/05/09 01:55:10;;;;;;;0.70;0.70;;;21.90;55.90;;;;;;5093424;28;20020;-44
2021/05/09 01:57:35;;;;;;;0.63;0.63;;;21.90;56.20;;;;;;5090026;28;20035;-43
2021/05/09 02:00:01;;;;;;;0.68;0.68;;;21.90;55.90;;;;;;5089913;28;20592;-45
2021/05/09 02:02:27;;;;;;;0.80;0.80;;;21.90;56.00;;;;;;5105833;28;20089;-41
2021/05/09 02:04:52;;;;;;;0.70;0.70;;;21.90;56.00;;;;;;5092871;28;20016;-43
2021/05/09 02:07:19;;;;;;;0.60;0.60;;;22.00;55.80;;;;;;5093507;28;20513;-43
2021/05/09 02:09:44;;;;;;;0.75;0.75;;;22.00;55.70;;;;;;5095643;28;20023;-46
2021/05/09 02:12:10;;;;;;;0.60;0.60;;;22.10;55.50;;;;;;5096714;28;20019;-45
2021/05/09 02:14:36;;;;;;;0.77;0.77;;;21.90;55.80;;;;;;5092026;28;20109;-43
2021/05/09 02:17:02;;;;;;;0.50;0.50;;;21.90;56.00;;;;;;5090620;28;20030;-43
2021/05/09 02:19:28;;;;;;;0.90;0.70;;;21.90;55.90;;;;;;5093295;28;20028;-43
2021/05/09 02:21:53;;;;;;;1.00;0.60;;;21.90;56.00;;;;;;5092945;28;20027;-42
2021/05/09 02:24:19;;;;;;;0.70;0.70;;;21.90;55.80;;;;;;5091892;28;20107;-46
2021/05/09 02:26:45;;;;;;;0.80;0.80;;;21.90;55.90;;;;;;5095281;28;20021;-43
2021/05/09 02:29:10;;;;;;;0.77;0.77;;;21.90;55.90;;;;;;5091436;28;20042;-43
2021/05/09 02:31:36;;;;;;;0.60;0.60;;;21.90;55.80;;;;;;5075656;28;20383;-43
2021/05/09 02:34:01;;;;;;;0.77;0.77;;;21.80;56.00;;;;;;5100804;28;20027;-44
2021/05/09 02:36:27;;;;;;;0.55;0.55;;;21.80;56.00;;;;;;5102376;28;20034;-40
2021/05/09 02:38:52;;;;;;;0.85;0.85;;;21.80;56.20;;;;;;5093328;28;20056;-43
2021/05/09 02:41:20;;;;;;;0.65;0.65;;;21.80;56.10;;;;;;5094989;28;20028;-43
2021/05/09 02:43:45;;;;;;;0.70;0.70;;;21.80;55.90;;;;;;5099015;28;20031;-43
2021/05/09 02:46:12;;;;;;;0.70;0.70;;;21.80;56.30;;;;;;5100534;28;20486;-41
2021/05/09 02:48:37;;;;;;;0.77;0.70;;;21.70;56.30;;;;;;5100579;28;20044;-43
2021/05/09 02:51:03;;;;;;;0.60;0.60;;;21.70;56.30;;;;;;5074305;28;20089;-43
2021/05/09 02:53:28;;;;;;;0.60;0.60;;;21.70;56.20;;;;;;5092079;28;20024;-44
2021/05/09 02:55:54;;;;;;;0.63;0.50;;;21.90;56.50;;;;;;5095318;28;20048;-43
2021/05/09 02:58:20;;;;;;;0.68;0.63;;;21.80;55.90;;;;;;5093507;28;20093;-41
2021/05/09 03:00:45;;;;;;;0.82;0.82;;;21.80;56.10;;;;;;5094848;28;20507;-42
2021/05/09 03:03:11;;;;;;;0.50;0.50;;;21.80;56.10;;;;;;5095552;28;20020;-45
2021/05/09 03:05:36;;;;;;;0.73;0.73;;;21.70;56.30;;;;;;5082132;28;20102;-43
2021/05/09 03:08:02;;;;;;;2.08;0.50;;;21.70;56.40;;;;;;5092630;28;20036;-45
2021/05/09 03:10:27;;;;;;;0.60;0.60;;;21.70;56.40;;;;;;5099537;28;20080;-43
2021/05/09 03:12:53;;;;;;;0.60;0.55;;;21.70;56.40;;;;;;5096883;28;20028;-43
2021/05/09 03:15:19;;;;;;;0.70;0.70;;;21.70;56.30;;;;;;5096102;28;20031;-43
2021/05/09 03:17:44;;;;;;;0.70;0.70;;;21.70;56.60;;;;;;5097667;28;20111;-47
2021/05/09 03:20:10;;;;;;;0.80;0.52;;;21.70;56.70;;;;;;5093589;28;20043;-43
2021/05/09 03:22:36;;;;;;;0.60;0.60;;;21.70;56.40;;;;;;5096301;28;20043;-43
2021/05/09 03:25:01;;;;;;;0.55;0.47;;;21.70;56.90;;;;;;5094815;28;20020;-44
2021/05/09 03:27:27;;;;;;;0.60;0.60;;;21.60;56.40;;;;;;5101506;28;20116;-43
2021/05/09 03:29:52;;;;;;;0.68;0.68;;;21.70;56.30;;;;;;5094314;28;20027;-44
2021/05/09 03:32:18;;;;;;;0.40;0.40;;;21.70;56.30;;;;;;5094698;28;21127;-43
2021/05/09 03:34:44;;;;;;;0.57;0.40;;;21.70;56.20;;;;;;5097693;28;20105;-43
2021/05/09 03:37:09;;;;;;;0.50;0.50;;;21.80;56.10;;;;;;5098591;28;20510;-43
2021/05/09 03:39:35;;;;;;;0.40;0.40;;;21.70;56.10;;;;;;5095673;28;20028;-43
2021/05/09 03:42:00;;;;;;;0.50;0.50;;;21.70;57.00;;;;;;5076401;28;20027;-42
2021/05/09 03:44:26;;;;;;;0.60;0.60;;;21.70;56.10;;;;;;5094920;28;20112;-42
2021/05/09 03:46:51;;;;;;;0.70;0.70;;;21.70;56.20;;;;;;5103531;28;20585;-42
2021/05/09 03:49:17;;;;;;;0.60;0.60;;;21.70;56.30;;;;;;5096653;28;20054;-41
2021/05/09 03:51:42;;;;;;;0.50;0.50;;;21.60;56.30;;;;;;5091347;28;20109;-43
2021/05/09 03:54:08;;;;;;;0.60;0.60;;;21.70;56.30;;;;;;5091891;28;20028;-43
2021/05/09 03:56:34;;;;;;;0.60;0.60;;;21.60;56.30;;;;;;5094964;28;20828;-44
2021/05/09 03:58:59;;;;;;;0.60;0.60;;;21.70;56.80;;;;;;5091037;28;20028;-47
2021/05/09 04:01:25;;;;;;;0.80;0.80;;;21.70;56.20;;;;;;5094560;28;20103;-43
2021/05/09 04:03:50;;;;;;;0.70;0.70;;;21.60;56.30;;;;;;5095798;28;20540;-41
2021/05/09 04:06:16;;;;;;;0.60;0.60;;;21.60;56.90;;;;;;5097121;28;20020;-41
2021/05/09 04:08:42;;;;;;;0.60;0.60;;;21.70;56.20;;;;;;5094076;28;20028;-43
2021/05/09 04:11:11;;;;;;;0.73;0.73;;;21.60;56.30;;;;;;5093928;28;20120;-47
2021/05/09 04:13:46;;;;;;;0.60;0.60;;;21.60;56.50;;;;;;5095597;28;20028;-44
2021/05/09 04:16:12;;;;;;;0.77;0.77;;;21.50;56.30;;;;;;5100586;28;20060;-42
2021/05/09 04:18:37;;;;;;;0.70;0.70;;;21.50;56.30;;;;;;5094802;28;20577;-46
2021/05/09 04:21:03;;;;;;;0.50;0.50;;;21.60;56.40;;;;;;5064152;28;20024;-47
2021/05/09 04:23:29;;;;;;;1.00;0.88;;;21.60;56.30;;;;;;5093012;28;20023;-45
2021/05/09 04:25:55;;;;;;;0.52;0.52;;;21.70;56.00;;;;;;5077729;28;20077;-45
2021/05/09 04:28:21;;;;;;;0.50;0.45;;;21.60;56.00;;;;;;5082913;28;20526;-45
2021/05/09 04:30:46;;;;;;;0.55;0.50;;;21.60;56.10;;;;;;5098081;28;20020;-43
2021/05/09 04:33:12;;;;;;;0.50;0.50;;;21.60;56.10;;;;;;5090501;28;20092;-45
2021/05/09 04:35:41;;;;;;;0.55;0.55;;;21.50;56.50;;;;;;5095116;28;20038;-44
2021/05/09 04:38:06;;;;;;;0.60;0.60;;;21.70;56.20;;;;;;5095018;28;20044;-42
2021/05/09 04:40:32;;;;;;;0.50;0.50;;;21.70;56.50;;;;;;5095497;28;20100;-46
2021/05/09 04:43:08;;;;;;;0.60;0.60;;;21.90;56.20;;;;;;5093556;28;20024;-46
2021/05/09 04:45:34;;;;;;;0.60;0.60;;;21.90;56.00;;;;;;5096673;28;20485;-46
2021/05/09 04:48:00;;;;;;;2.92;0.50;;;22.00;55.70;;;;;;5074297;28;20035;-46
2021/05/09 04:50:25;;;;;;;0.80;0.68;;;21.90;56.20;;;;;;5092028;28;20504;-46
2021/05/09 04:52:51;;;;;;;1.20;0.50;;;21.90;56.20;;;;;;5096652;28;20075;-46
2021/05/09 04:55:16;;;;;;;0.57;0.57;;;21.90;55.80;;;;;;5098387;28;20055;-42
2021/05/09 04:57:42;;;;;;;0.63;0.63;;;21.80;55.70;;;;;;5096133;28;20069;-47
2021/05/09 05:00:08;;;;;;;0.50;0.50;;;21.80;55.70;;;;;;5100229;28;20034;-45
2021/05/09 05:02:34;;;;;;;0.65;0.40;;;21.90;55.70;;;;;;5079762;28;20028;-45
2021/05/09 05:04:59;;;;;;;0.50;0.50;;;21.70;56.00;;;;;;5091836;28;20028;-45
2021/05/09 05:07:25;;;;;;;0.55;0.55;;;21.70;56.20;;;;;;5094779;28;20209;-46
2021/05/09 05:09:51;;;;;;;0.60;0.60;;;21.60;56.20;;;;;;5093980;28;20338;-45
2021/05/09 05:12:16;;;;;;;0.50;0.50;;;21.60;56.40;;;;;;5077576;28;20038;-45
2021/05/09 05:14:43;;;;;;;0.50;0.47;;;21.60;56.40;;;;;;5095205;28;20150;-45
2021/05/09 05:17:09;;;;;;;0.50;0.50;;;21.70;56.30;;;;;;5077339;28;20024;-47
2021/05/09 05:19:34;;;;;;;0.50;0.50;;;21.70;56.10;;;;;;5099812;28;20031;-44
2021/05/09 05:22:00;;;;;;;0.50;0.50;;;21.70;56.20;;;;;;5076084;28;20016;-44
2021/05/09 05:24:26;;;;;;;0.40;0.40;;;21.70;56.20;;;;;;5101319;28;20030;-43
2021/05/09 05:26:52;;;;;;;0.40;0.40;;;21.70;56.10;;;;;;5089986;28;20069;-45
2021/05/09 05:29:17;;;;;;;0.50;0.50;;;21.80;55.90;;;;;;5089311;28;20086;-38
2021/05/09 05:31:45;;;;;;;0.50;0.50;;;21.70;56.20;;;;;;5089870;28;20077;-45
2021/05/09 05:34:11;;;;;;;0.50;0.50;;;21.70;56.20;;;;;;5095267;28;20051;-46
2021/05/09 05:36:36;;;;;;;0.40;0.40;;;21.70;55.90;;;;;;5078849;28;20051;-46
2021/05/09 05:39:02;;;;;;;1.13;0.60;;;21.80;55.90;;;;;;5097276;28;20066;-48
2021/05/09 05:41:28;;;;;;;0.63;0.63;;;21.80;56.00;;;;;;5077785;28;20397;-47
2021/05/09 05:43:53;;;;;;;0.45;0.40;;;21.70;56.10;;;;;;5105589;28;20556;-41
2021/05/09 05:46:19;;;;;;;0.55;0.55;;;21.70;56.10;;;;;;5105782;28;20047;-42
2021/05/09 05:48:44;;;;;;;0.60;0.60;;;21.80;55.80;;;;;;5090354;28;20713;-46
2021/05/09 05:51:10;;;;;;;0.50;0.50;;;22.00;55.50;;;;;;5107472;28;20378;-45
2021/05/09 05:53:36;;;;;;;0.60;0.60;;;21.90;55.40;;;;;;5088817;28;20027;-44
2021/05/09 05:56:01;;;;;;;0.60;0.60;;;21.90;55.40;;;;;;5109659;28;20115;-44
2021/05/09 05:58:27;;;;;;;0.50;0.50;;;22.00;55.40;;;;;;5088629;28;20571;-45
2021/05/09 06:00:52;;;;;;;1.10;0.50;;;22.00;55.40;;;;;;5107455;28;20049;-46
2021/05/09 06:03:18;;;;;;;0.50;0.50;;;22.10;54.90;;;;;;5105811;28;20560;-48
2021/05/09 06:05:44;;;;;;;0.30;0.30;;;22.10;54.90;;;;;;5106983;28;20397;-45
2021/05/09 06:08:10;;;;;;;0.60;0.60;;;22.10;55.00;;;;;;5105722;28;20027;-43
2021/05/09 06:10:36;;;;;;;1.73;0.52;;;22.00;55.10;;;;;;5096566;28;20440;-46
2021/05/09 06:13:02;;;;;;;0.60;0.55;;;22.10;55.00;;;;;;5085125;28;20016;-47
2021/05/09 06:15:29;;;;;;;0.60;0.60;;;22.20;55.00;;;;;;5081372;28;20047;-44
2021/05/09 06:17:55;;;;;;;0.50;0.50;;;22.20;55.20;;;;;;5101567;28;20027;-47
2021/05/09 06:20:21;;;;;;;0.50;0.50;;;22.30;55.00;;;;;;5101106;28;20027;-45
2021/05/09 06:22:46;;;;;;;0.45;0.45;;;22.30;55.00;;;;;;5085916;28;20485;-45
2021/05/09 06:25:12;;;;;;;0.55;0.50;;;22.30;55.00;;;;;;5102231;28;20031;-43
2021/05/09 06:27:38;;;;;;;0.47;0.47;;;22.30;54.90;;;;;;5086902;28;20046;-44
2021/05/09 06:30:04;;;;;;;0.52;0.50;;;22.30;54.90;;;;;;5082964;28;20413;-46
2021/05/09 06:32:30;;;;;;;0.60;0.60;;;22.30;55.00;;;;;;5092585;28;21633;-47
2021/05/09 06:34:55;;;;;;;0.60;0.60;;;22.30;54.80;;;;;;5086324;28;20038;-46
2021/05/09 06:37:21;;;;;;;0.40;0.40;;;22.30;55.00;;;;;;5097113;28;20091;-45
2021/05/09 06:39:47;;;;;;;0.70;0.70;;;22.30;55.00;;;;;;5101988;28;20062;-44
2021/05/09 06:42:12;;;;;;;0.60;0.60;;;22.30;55.10;;;;;;5104023;28;20485;-47
2021/05/09 06:44:45;;;;;;;0.47;0.47;;;22.30;54.80;;;;;;5097441;28;20479;-45
2021/05/09 06:47:11;;;;;;;0.50;0.50;;;22.40;54.60;;;;;;5096443;28;20019;-46
2021/05/09 06:49:37;;;;;;;0.60;0.60;;;22.40;54.60;;;;;;5098729;28;20035;-47
2021/05/09 06:52:03;;;;;;;0.40;0.40;;;22.40;54.60;;;;;;5102506;28;20012;-45
2021/05/09 06:54:29;;;;;;;0.30;0.30;;;22.40;54.80;;;;;;5082117;28;20106;-46
2021/05/09 06:56:55;;;;;;;0.63;0.63;;;22.30;55.00;;;;;;5088969;28;20020;-44
2021/05/09 06:59:21;;;;;;;0.40;0.40;;;22.40;54.60;;;;;;5102871;28;20810;-44
2021/05/09 07:01:46;;;;;;;0.40;0.40;;;22.40;54.50;;;;;;5102731;28;20498;-45
2021/05/09 07:04:12;;;;;;;0.47;0.47;;;22.40;54.50;;;;;;5102345;28;20035;-44
2021/05/09 07:06:38;;;;;;;0.50;0.50;;;22.10;55.20;;;;;;5086804;28;20476;-45
2021/05/09 07:09:09;;;;;;;0.52;0.52;;;22.00;55.50;;;;;;5098164;28;20036;-45
2021/05/09 07:11:35;;;;;;;0.55;0.50;;;22.00;55.70;;;;;;5085676;28;20063;-45
2021/05/09 07:14:01;;;;;;;0.40;0.40;;;22.10;55.80;;;;;;5093305;28;20059;-43
2021/05/09 07:16:27;;;;;;;0.45;0.45;;;22.10;55.50;;;;;;5094093;28;20036;-45
2021/05/09 07:18:53;;;;;;;0.65;0.65;;;22.20;55.10;;;;;;5082163;28;20035;-44
2021/05/09 07:21:25;;;;;;;0.60;0.60;;;22.30;55.10;;;;;;5103786;28;20051;-45
2021/05/09 07:23:51;;;;;;;0.60;0.60;;;22.30;55.30;;;;;;5076809;28;20058;-45
2021/05/09 07:26:16;;;;;;;0.60;0.60;;;22.20;55.60;;;;;;5091595;28;20482;-44
2021/05/09 07:28:42;;;;;;;0.82;0.60;;;22.30;55.30;;;;;;5081243;28;20078;-47
2021/05/09 07:31:08;;;;;;;1.23;0.60;;;22.20;56.20;;;;;;5079120;28;20035;-46
2021/05/09 07:33:33;;;;;;;0.77;0.52;;;22.30;56.70;;;;;;5091311;28;20752;-42
2021/05/09 07:35:59;;;;;;;3.85;0.93;;;22.20;57.30;;;;;;5095634;28;20043;-44
2021/05/09 07:38:24;;;;;;;2.20;0.93;;;22.10;58.00;;;;;;5089204;28;20083;-44
2021/05/09 07:40:50;;;;;;;1.00;0.73;;;22.00;60.00;;;;;;5093785;28;20081;-47
2021/05/09 07:43:16;;;;;;;0.70;0.70;;;22.00;59.40;;;;;;5089212;28;20520;-45
2021/05/09 07:45:43;;;;;;;1.23;0.80;;;22.00;59.10;;;;;;5088396;28;20028;-45
2021/05/09 07:48:09;;;;;;;1.45;0.77;;;22.10;58.60;;;;;;5077523;28;20567;-43
2021/05/09 07:50:35;;;;;;;3.72;0.90;;;22.20;59.20;;;;;;5090693;28;20031;-43
2021/05/09 07:53:01;;;;;;;3.30;0.70;;;22.10;59.60;;;;;;5071679;28;20105;-44
2021/05/09 07:55:27;;;;;;;1.20;0.80;;;22.20;59.20;;;;;;5091881;28;20090;-45
2021/05/09 07:57:53;;;;;;;9.00;0.90;;;22.20;59.80;;;;;;5090827;28;20024;-44
2021/05/09 08:00:20;;;;;;;0.60;0.60;;;22.20;59.60;;;;;;5089493;28;20097;-43
2021/05/09 08:02:46;;;;;;;3.00;0.75;;;22.30;58.90;;;;;;5109462;27;20519;-46
2021/05/09 08:05:12;;;;;;;0.98;0.70;;;22.30;58.90;;;;;;5054355;28;20024;-41
2021/05/09 08:07:50;;;;;;;1.42;1.00;;;22.30;58.70;;;;;;4741581;28;10000207;-45
2021/05/09 08:10:16;;;;;;;4.15;0.80;;;22.20;58.90;;;;;;5094349;28;20052;-46
2021/05/09 08:12:42;;;;;;;3.65;1.17;;;22.20;59.60;;;;;;5090768;28;20265;-44
2021/05/09 08:15:08;;;;;;;1.48;0.80;;;22.30;59.10;;;;;;5077448;28;20031;-46
2021/05/09 08:17:33;;;;;;;1.33;0.70;;;22.40;59.20;;;;;;5091487;28;20036;-45
2021/05/09 08:19:59;;;;;;;1.33;0.60;;;22.40;59.00;;;;;;5077073;28;20028;-44
2021/05/09 08:22:25;;;;;;;3.17;0.88;;;22.50;58.60;;;;;;5095964;28;20486;-44
2021/05/09 08:24:51;;;;;;;4.95;0.80;;;22.50;58.50;;;;;;5093479;28;20024;-43
2021/05/09 08:27:17;;;;;;;2.08;0.80;;;22.50;58.50;;;;;;5074381;28;20551;-43
2021/05/09 08:29:42;;;;;;;5.28;1.05;;;22.60;58.50;;;;;;5094012;28;20038;-44
2021/05/09 08:32:08;;;;;;;0.93;0.70;;;22.60;57.70;;;;;;5091582;28;20024;-42
2021/05/09 08:34:35;;;;;;;1.30;0.85;;;22.50;58.30;;;;;;5100458;28;20032;-45
2021/05/09 08:37:01;;;;;;;2.20;0.93;;;22.60;57.90;;;;;;5093575;28;20371;-43
2021/05/09 08:39:26;;;;;;;2.75;0.80;;;22.60;57.70;;;;;;5094883;28;20045;-43
2021/05/09 08:41:52;;;;;;;3.35;1.00;;;22.60;57.40;;;;;;5091954;28;20542;-45
2021/05/09 08:44:17;;;;;;;1.75;0.75;;;22.70;57.30;;;;;;5075341;28;20028;-46
2021/05/09 08:46:45;;;;;;;1.40;0.80;;;22.60;57.50;;;;;;5085712;28;20076;-45
2021/05/09 08:49:11;;;;;;;2.78;0.98;;;22.40;57.80;;;;;;5074384;28;20677;-44
2021/05/09 08:51:36;;;;;;;2.80;0.90;;;22.20;58.50;;;;;;5075805;28;20016;-45
2021/05/09 08:54:02;;;;;;;0.95;0.70;;;22.10;58.90;;;;;;5056000;28;20059;-44
2021/05/09 08:56:27;;;;;;;1.20;0.82;;;22.10;58.90;;;;;;5088799;28;20586;-37
2021/05/09 08:58:53;;;;;;;0.85;0.70;;;22.10;58.50;;;;;;5092660;28;20085;-45
2021/05/09 09:01:19;;;;;;;2.25;1.02;;;22.10;58.80;;;;;;5083925;28;20075;-46
2021/05/09 09:03:44;;;;;;;1.00;1.00;;;22.10;58.90;;;;;;5098211;28;20553;-42
2021/05/09 09:06:15;;;;;;;1.10;0.52;;;22.10;59.00;;;;;;5056798;28;20073;-46
2021/05/09 09:08:50;;;;;;;3.30;0.82;;;22.20;58.60;;;;;;5074803;28;20036;-43
2021/05/09 09:11:25;;;;;;;1.08;0.73;;;22.20;58.70;;;;;;5090003;28;20050;-36
2021/05/09 09:14:11;;;;;;;2.05;1.08;;;22.30;58.30;;;;;;5094110;28;20037;-42
2021/05/09 09:16:37;;;;;;;1.38;0.73;;;22.30;58.20;;;;;;5084152;28;20019;-40
2021/05/09 09:19:07;;;;;;;2.80;0.60;;;22.30;58.30;;;;;;5087100;28;20035;-43
2021/05/09 09:21:33;;;;;;;1.38;0.70;;;22.30;58.50;;;;;;5087030;28;20028;-39
2021/05/09 09:24:08;;;;;;;1.00;0.75;;;22.30;58.10;;;;;;5089884;28;20035;-43
2021/05/09 09:26:42;;;;;;;1.67;0.95;;;22.40;57.70;;;;;;5095625;28;20028;-42
2021/05/09 09:29:28;;;;;;;2.20;1.08;;;22.40;58.00;;;;;;5085779;28;20256;-45
2021/05/09 09:31:58;;;;;;;2.03;0.90;;;22.40;58.40;;;;;;5091058;28;20051;-45
2021/05/09 09:34:43;;;;;;;3.13;0.88;;;22.40;57.90;;;;;;5075259;28;20032;-40
2021/05/09 09:37:10;;;;;;;1.27;0.93;;;22.40;58.30;;;;;;5093834;28;20041;-44
2021/05/09 09:39:58;;;;;;;2.47;0.63;;;22.40;58.70;;;;;;5091256;28;20032;-41
2021/05/09 09:42:47;;;;;;;1.50;0.68;;;22.40;57.60;;;;;;5102711;28;20569;-43
2021/05/09 09:45:22;;;;;;;0.65;0.52;;;22.50;57.50;;;;;;5095127;28;20028;-43
2021/05/09 09:47:53;;;;;;;0.75;0.75;;;22.60;57.30;;;;;;5094994;28;20474;-42
2021/05/09 09:50:39;;;;;;;1.00;0.60;;;22.70;57.10;;;;;;5104266;28;20481;-43
2021/05/09 09:53:29;;;;;;;1.17;0.80;;;22.70;57.20;;;;;;5090413;28;20039;-42
2021/05/09 09:56:14;;;;;;;0.77;0.50;;;22.80;56.70;;;;;;5099118;28;20036;-43
2021/05/09 09:58:58;;;;;;;0.68;0.68;;;22.80;56.70;;;;;;5083887;28;20031;-43
2021/05/09 10:01:31;;;;;;;1.60;0.68;;;22.70;56.90;;;;;;5099186;28;20476;-44
2021/05/09 10:03:58;;;;;;;0.70;0.65;;;22.60;57.10;;;;;;5100201;28;20032;-43
2021/05/09 10:06:24;;;;;;;1.08;0.60;;;22.60;57.10;;;;;;5087089;28;20237;-42
2021/05/09 10:08:50;;;;;;;1.25;0.73;;;22.60;56.90;;;;;;5097539;28;20580;-40
2021/05/09 10:11:16;;;;;;;0.60;0.60;;;22.70;56.60;;;;;;5096725;28;20035;-42
2021/05/09 10:13:41;;;;;;;1.38;0.70;;;22.80;56.50;;;;;;5104461;28;20112;-45
2021/05/09 10:16:08;;;;;;;0.85;0.60;;;22.90;56.10;;;;;;5080314;28;20027;-43
2021/05/09 10:18:33;;;;;;;1.63;0.60;;;22.90;56.10;;;;;;5095819;28;20517;-46
2021/05/09 10:20:59;;;;;;;0.50;0.50;;;22.90;55.90;;;;;;5079519;28;20035;-43
2021/05/09 10:23:25;;;;;;;3.08;0.68;;;23.00;55.80;;;;;;5079452;28;20488;-42
2021/05/09 10:25:55;;;;;;;0.77;0.60;;;22.90;55.90;;;;;;5102334;28;20044;-40
2021/05/09 10:28:37;;;;;;;0.45;0.43;;;23.00;55.90;;;;;;5103433;28;20123;-48
2021/05/09 10:31:04;;;;;;;0.73;0.60;;;22.90;56.10;;;;;;5096246;28;20457;-44
2021/05/09 10:33:39;;;;;;;1.08;0.65;;;22.80;56.50;;;;;;5082957;28;20023;-39
2021/05/09 10:36:22;;;;;;;1.33;0.60;;;22.70;56.80;;;;;;5095367;28;20027;-45
2021/05/09 10:39:14;;;;;;;0.53;0.50;;;22.80;56.20;;;;;;5093963;28;20043;-44
2021/05/09 10:41:54;;;;;;;0.57;0.57;;;22.90;56.00;;;;;;5092986;28;20103;-44
2021/05/09 10:44:40;;;;;;;0.70;0.70;;;23.10;55.60;;;;;;5094463;28;20091;-46
2021/05/09 10:47:07;;;;;;;0.95;0.60;;;23.10;55.50;;;;;;5091735;28;20028;-47
2021/05/09 10:49:33;;;;;;;1.38;0.70;;;23.20;55.30;;;;;;5091157;28;20047;-44
2021/05/09 10:52:04;;;;;;;0.68;0.60;;;23.20;55.00;;;;;;5098221;28;20024;-43
2021/05/09 10:54:29;;;;;;;0.68;0.47;;;23.30;55.30;;;;;;5060553;28;20062;-40
2021/05/09 10:56:55;;;;;;;1.08;0.60;;;23.20;55.50;;;;;;5092286;28;20394;-45
2021/05/09 10:59:20;;;;;;;0.50;0.50;;;23.20;55.60;;;;;;5098430;28;20078;-46
2021/05/09 11:02:06;;;;;;;1.58;0.70;;;23.20;55.30;;;;;;5089953;28;20028;-46
2021/05/09 11:04:47;;;;;;;0.45;0.45;;;23.40;55.00;;;;;;5066360;28;20103;-41
2021/05/09 11:07:44;;;;;;;1.48;0.40;;;23.40;55.40;;;;;;5092843;28;20161;-41
2021/05/09 11:10:37;;;;;;;0.55;0.50;;;23.30;54.90;;;;;;5089252;28;20439;-46
2021/05/09 11:13:09;;;;;;;0.65;0.50;;;23.20;55.10;;;;;;5097376;28;20107;-41
2021/05/09 11:15:34;;;;;;;0.63;0.60;;;23.20;55.30;;;;;;5094047;28;20034;-44
2021/05/09 11:18:00;;;;;;;2.33;0.60;;;23.20;55.50;;;;;;5089350;28;20027;-41
2021/05/09 11:20:26;;;;;;;1.02;0.68;;;23.20;55.60;;;;;;5089899;28;20032;-46
2021/05/09 11:22:58;;;;;;;0.90;0.52;;;23.30;56.00;;;;;;5090993;28;20452;-45
2021/05/09 11:25:31;;;;;;;1.20;0.50;;;23.30;55.90;;;;;;5064641;28;20115;-43
2021/05/09 11:27:56;;;;;;;0.82;0.60;;;23.30;55.30;;;;;;5081538;28;20048;-43
2021/05/09 11:30:32;;;;;;;0.47;0.47;;;23.30;55.40;;;;;;5093873;28;20035;-45
2021/05/09 11:32:58;;;;;;;1.00;0.60;;;23.20;55.20;;;;;;5091064;28;20024;-43
2021/05/09 11:35:23;;;;;;;3.03;0.70;;;23.30;55.70;;;;;;5105504;28;20023;-43
2021/05/09 11:37:49;;;;;;;1.70;0.80;;;23.20;55.90;;;;;;5089725;28;20134;-42
2021/05/09 11:40:15;;;;;;;1.30;0.60;;;23.10;56.10;;;;;;5068981;28;20887;-46
2021/05/09 11:42:40;;;;;;;0.80;0.80;;;23.00;55.90;;;;;;5098248;28;20405;-45
2021/05/09 11:45:06;;;;;;;1.60;0.80;;;23.10;56.10;;;;;;5105166;28;20031;-45
2021/05/09 11:47:33;;;;;;;1.50;0.70;;;23.10;55.60;;;;;;5104936;28;20042;-48
2021/05/09 11:50:00;;;;;;;0.50;0.50;;;23.20;55.20;;;;;;5108425;28;20485;-46
2021/05/09 11:52:28;;;;;;;0.60;0.60;;;23.30;55.50;;;;;;5107297;28;20027;-46
2021/05/09 11:54:55;;;;;;;0.70;0.60;;;23.30;55.30;;;;;;5109448;28;20028;-46
2021/05/09 11:57:22;;;;;;;1.23;0.60;;;23.10;55.40;;;;;;5090770;28;20040;-45
2021/05/09 11:59:52;;;;;;;1.63;0.65;;;23.00;55.60;;;;;;5107807;28;20474;-43
2021/05/09 12:02:21;;;;;;;0.73;0.70;;;22.90;56.40;;;;;;5109630;28;20032;-44
2021/05/09 12:05:12;;;;;;;1.10;0.80;;;22.90;55.80;;;;;;5109730;28;20032;-43
2021/05/09 12:07:49;;;;;;;0.70;0.70;;;22.80;56.30;;;;;;5111282;28;20126;-42
2021/05/09 12:10:29;;;;;;;1.50;0.75;;;22.80;56.30;;;;;;5107588;28;20031;-44
2021/05/09 12:13:03;;;;;;;0.80;0.80;;;22.80;56.50;;;;;;5093175;28;20096;-44
2021/05/09 12:15:40;;;;;;;0.95;0.70;;;22.80;56.30;;;;;;5092467;28;20114;-43
2021/05/09 12:18:07;;;;;;;0.60;0.60;;;22.80;56.20;;;;;;5108871;28;20512;-43
2021/05/09 12:20:36;;;;;;;2.30;0.73;;;22.80;56.60;;;;;;5108437;28;20022;-43
2021/05/09 12:23:03;;;;;;;2.17;0.60;;;22.80;56.50;;;;;;5110577;28;20032;-42
2021/05/09 12:25:43;;;;;;;0.68;0.60;;;22.80;56.50;;;;;;5107893;28;20015;-42
2021/05/09 12:28:29;;;;;;;0.43;0.43;;;22.80;56.50;;;;;;5091852;28;20077;-37
2021/05/09 12:30:55;;;;;;;0.75;0.60;;;22.80;56.40;;;;;;5107519;28;20034;-45
2021/05/09 12:33:28;;;;;;;0.43;0.43;;;22.90;56.30;;;;;;5091404;28;20026;-42
2021/05/09 12:35:55;;;;;;;1.60;0.80;;;22.80;56.30;;;;;;5107229;28;20027;-45
2021/05/09 12:38:32;;;;;;;0.50;0.50;;;22.90;57.00;;;;;;5108318;28;20039;-45
2021/05/09 12:41:03;;;;;;;0.75;0.70;;;22.90;56.00;;;;;;5106731;28;20485;-42
2021/05/09 12:43:46;;;;;;;0.85;0.50;;;22.90;56.30;;;;;;5107723;28;20517;-42
2021/05/09 12:46:45;;;;;;;0.57;0.57;;;22.90;56.00;;;;;;5106825;28;20069;-42
2021/05/09 12:49:14;;;;;;;1.00;0.60;;;22.90;56.30;;;;;;5106804;28;20035;-42